createdAt,value
2023-03-27T00:01:59.608Z,45.15
2023-03-27T00:07:03.994Z,45.69
2023-03-27T00:12:07.731Z,45.66
2023-03-27T00:17:11.409Z,44.86
2023-03-27T00:22:14.468Z,43.91
2023-03-27T00:27:17.971Z,43.50
2023-03-27T00:32:21.897Z,43.24
2023-03-27T00:37:25.475Z,40.99
2023-03-27T00:42:29.186Z,39.24
2023-03-27T00:47:36.078Z,38.01
2023-03-27T00:52:42.682Z,37.37
2023-03-27T00:57:50.669Z,37.61
2023-03-27T01:02:55.848Z,37.67
2023-03-27T01:08:05.390Z,37.89
2023-03-27T01:13:26.503Z,38.06
2023-03-27T01:18:50.377Z,38.80
2023-03-27T01:24:13.014Z,38.95
2023-03-27T01:29:30.793Z,39.24
2023-03-27T01:35:06.643Z,38.79
2023-03-27T01:40:20.793Z,38.72
2023-03-27T01:45:33.977Z,39.08
2023-03-27T01:50:55.041Z,39.35
2023-03-27T01:56:11.497Z,39.04
2023-03-27T02:01:21.280Z,39.23
2023-03-27T02:06:34.382Z,39.84
2023-03-27T02:11:47.644Z,39.57
2023-03-27T02:16:58.507Z,39.81
2023-03-27T02:22:02.382Z,39.94
2023-03-27T02:27:35.385Z,40.39
2023-03-27T02:32:59.289Z,41.68
2023-03-27T02:38:09.588Z,41.79
2023-03-27T02:43:46.712Z,43.08
2023-03-27T02:49:01.902Z,43.24
2023-03-27T02:54:06.865Z,40.35
2023-03-27T02:59:19.184Z,37.82
2023-03-27T03:04:25.334Z,36.03
2023-03-27T03:09:48.824Z,33.33
2023-03-27T03:14:52.689Z,30.67
2023-03-27T03:19:56.739Z,31.02
2023-03-27T03:25:01.850Z,31.51
2023-03-27T03:30:07.831Z,30.57
2023-03-27T03:35:17.253Z,31.91
2023-03-27T03:40:22.463Z,27.06
2023-03-27T03:45:31.157Z,25.67
2023-03-27T03:50:36.309Z,23.75
2023-03-27T03:55:40.578Z,22.00
2023-03-27T04:00:43.823Z,23.04
2023-03-27T04:06:01.966Z,23.68
2023-03-27T04:11:05.969Z,26.78
2023-03-27T04:16:29.527Z,39.61
2023-03-27T04:21:36.735Z,47.74
2023-03-27T04:26:41.587Z,51.44
2023-03-27T04:32:10.668Z,54.63
2023-03-27T04:37:16.685Z,55.88
2023-03-27T04:42:43.270Z,56.64
2023-03-27T04:47:49.283Z,57.86
2023-03-27T04:52:58.967Z,59.70
2023-03-27T04:58:05.957Z,61.19
2023-03-27T05:03:11.440Z,61.96
2023-03-27T05:08:31.610Z,62.47
2023-03-27T05:13:36.574Z,62.85
2023-03-27T05:18:42.340Z,63.87
2023-03-27T05:23:46.419Z,63.31
2023-03-27T05:28:51.591Z,64.38
2023-03-27T05:33:55.282Z,63.27
2023-03-27T05:38:59.867Z,63.76
2023-03-27T05:44:09.571Z,63.33
2023-03-27T05:49:18.439Z,64.07
2023-03-27T05:54:26.772Z,62.12
2023-03-27T05:59:36.078Z,63.40
2023-03-27T06:04:53.582Z,63.56
2023-03-27T06:10:04.520Z,62.59
2023-03-27T06:15:19.568Z,61.90
2023-03-27T06:20:43.672Z,51.86
2023-03-27T06:25:48.148Z,46.05
2023-03-27T06:30:51.777Z,43.46
2023-03-27T06:36:06.273Z,41.95
2023-03-27T06:41:12.221Z,39.67
2023-03-27T06:46:45.027Z,34.28
2023-03-27T06:51:59.636Z,36.97
2023-03-27T06:57:03.618Z,37.16
2023-03-27T07:02:25.915Z,37.40
2023-03-27T07:07:49.370Z,35.59
2023-03-27T07:12:57.131Z,33.50
2023-03-27T07:18:03.569Z,35.90
2023-03-27T07:23:07.684Z,34.05
2023-03-27T07:28:33.023Z,34.94
2023-03-27T07:33:44.950Z,34.02
2023-03-27T07:38:50.056Z,32.38
2023-03-27T07:44:04.332Z,34.73
2023-03-27T07:49:19.482Z,32.80
2023-03-27T07:54:44.608Z,32.52
2023-03-27T07:59:52.908Z,31.86
2023-03-27T08:05:20.187Z,32.51
2023-03-27T08:10:39.781Z,30.97
2023-03-27T08:15:45.185Z,30.31
2023-03-27T08:20:59.525Z,30.81
2023-03-27T08:26:04.327Z,30.58
2023-03-27T08:31:17.141Z,31.49
2023-03-27T08:36:23.309Z,30.77
2023-03-27T08:41:38.723Z,30.06
2023-03-27T08:47:10.962Z,32.43
2023-03-27T08:52:25.660Z,31.47
2023-03-27T08:57:33.098Z,29.86
2023-03-27T09:02:51.913Z,30.79
2023-03-27T09:08:24.336Z,29.09
2023-03-27T09:13:35.830Z,29.65
2023-03-27T09:18:46.857Z,28.59
2023-03-27T09:24:00.605Z,19.37
2023-03-27T09:29:42.078Z,18.91
2023-03-27T09:35:06.333Z,18.58
2023-03-27T09:40:26.070Z,19.63
2023-03-27T09:45:33.569Z,21.03
2023-03-27T09:50:49.559Z,21.12
2023-03-27T09:56:16.625Z,20.83
2023-03-27T10:01:31.148Z,20.68
2023-03-27T10:07:22.747Z,22.09
2023-03-27T10:12:54.118Z,23.09
2023-03-27T10:18:21.839Z,22.15
2023-03-27T10:23:44.362Z,22.83
2023-03-27T10:29:18.361Z,24.01
2023-03-27T10:34:52.918Z,24.60
2023-03-27T10:40:07.800Z,24.48
2023-03-27T10:45:21.071Z,25.41
2023-03-27T10:50:46.321Z,26.70
2023-03-27T10:56:39.724Z,26.44
2023-03-27T11:01:48.470Z,26.75
2023-03-27T11:07:00.118Z,25.76
2023-03-27T11:12:12.103Z,25.59
2023-03-27T11:17:44.975Z,27.44
2023-03-27T11:23:30.288Z,26.51
2023-03-27T11:29:04.563Z,25.87
2023-03-27T11:34:29.104Z,26.45
2023-03-27T11:40:01.573Z,25.81
2023-03-27T11:45:09.704Z,26.92
2023-03-27T11:50:36.364Z,28.24
2023-03-27T11:55:57.257Z,27.37
2023-03-27T12:01:10.521Z,27.62
2023-03-27T12:06:50.162Z,29.91
2023-03-27T12:12:24.933Z,29.54
2023-03-27T12:17:56.268Z,30.73
2023-03-27T12:23:26.040Z,31.03
2023-03-27T12:29:00.716Z,31.12
2023-03-27T12:34:53.371Z,29.38
2023-03-27T12:40:01.972Z,26.67
2023-03-27T12:45:28.296Z,28.55
2023-03-27T12:50:56.705Z,27.63
2023-03-27T12:56:13.584Z,28.22
2023-03-27T13:01:24.728Z,27.22
2023-03-27T13:07:05.504Z,28.43
2023-03-27T13:12:40.708Z,30.50
2023-03-27T13:18:01.579Z,28.17
2023-03-27T13:23:33.167Z,29.67
2023-03-27T13:28:48.827Z,29.55
2023-03-27T13:34:14.381Z,27.62
2023-03-27T13:39:25.113Z,29.70
2023-03-27T13:44:40.149Z,28.57
2023-03-27T13:50:04.540Z,28.62
2023-03-27T13:55:19.465Z,27.88
2023-03-27T14:01:18.315Z,26.99
2023-03-27T14:07:01.435Z,29.24
2023-03-27T14:12:12.774Z,28.57
2023-03-27T14:18:01.946Z,29.50
2023-03-27T14:23:24.052Z,29.68
2023-03-27T14:28:57.743Z,30.37
2023-03-27T14:34:10.745Z,30.55
2023-03-27T14:39:18.369Z,30.87
2023-03-27T14:44:28.080Z,31.34
2023-03-27T14:49:39.634Z,30.76
2023-03-27T14:54:55.005Z,33.41
2023-03-27T15:00:07.169Z,32.41
2023-03-27T15:05:22.859Z,31.12
2023-03-27T15:10:33.932Z,31.28
2023-03-27T15:15:47.299Z,30.48
2023-03-27T15:20:51.428Z,30.43
2023-03-27T15:26:20.913Z,30.85
2023-03-27T15:31:25.807Z,29.47
2023-03-27T15:36:33.467Z,30.16
2023-03-27T15:41:41.242Z,33.08
2023-03-27T15:46:54.510Z,35.06
2023-03-27T15:52:00.758Z,36.50
2023-03-27T15:57:11.724Z,36.86
2023-03-27T16:02:18.529Z,38.30
2023-03-27T16:07:27.732Z,37.83
2023-03-27T16:12:55.411Z,40.78
2023-03-27T16:18:04.554Z,42.04
2023-03-27T16:23:08.114Z,41.82
2023-03-27T16:28:14.513Z,40.64
2023-03-27T16:33:21.488Z,41.14
2023-03-27T16:38:25.806Z,42.63
2023-03-27T16:43:28.802Z,44.21
2023-03-27T16:48:32.950Z,45.03
2023-03-27T16:53:36.448Z,44.22
2023-03-27T16:58:40.901Z,44.56
2023-03-27T17:03:44.583Z,46.09
2023-03-27T17:08:49.524Z,47.22
2023-03-27T17:13:53.033Z,46.00
2023-03-27T17:18:57.972Z,46.27
2023-03-27T17:24:02.369Z,46.28
2023-03-27T17:29:08.720Z,46.78
2023-03-27T17:34:12.635Z,44.74
2023-03-27T17:39:16.043Z,45.74
2023-03-27T17:44:19.794Z,44.79
2023-03-27T17:49:23.707Z,43.04
2023-03-27T17:54:26.770Z,42.77
2023-03-27T17:59:33.819Z,41.79
2023-03-27T18:04:37.635Z,41.29
2023-03-27T18:09:41.931Z,38.30
2023-03-27T18:14:45.716Z,36.46
2023-03-27T18:19:48.773Z,39.54
2023-03-27T18:24:52.847Z,39.58
2023-03-27T18:29:56.372Z,39.38
2023-03-27T18:35:00.275Z,38.79
2023-03-27T18:40:08.381Z,36.04
2023-03-27T18:45:13.511Z,36.49
2023-03-27T18:50:17.993Z,35.92
2023-03-27T18:55:29.968Z,32.66
2023-03-27T19:00:38.014Z,33.45
2023-03-27T19:05:42.184Z,30.13
2023-03-27T19:10:45.875Z,29.99
2023-03-27T19:15:58.414Z,28.54
2023-03-27T19:21:27.532Z,27.40
2023-03-27T19:26:42.389Z,25.33
2023-03-27T19:31:46.065Z,22.16
2023-03-27T19:36:52.039Z,21.18
2023-03-27T19:41:56.163Z,20.64
2023-03-27T19:46:59.350Z,21.37
2023-03-27T19:52:03.516Z,21.25
2023-03-27T19:57:07.375Z,20.86
2023-03-27T20:02:14.741Z,18.80
2023-03-27T20:07:18.941Z,22.59
2023-03-27T20:12:23.464Z,37.93
2023-03-27T20:17:28.384Z,42.27
2023-03-27T20:22:40.695Z,43.65
2023-03-27T20:27:50.545Z,44.32
2023-03-27T20:32:55.153Z,45.13
2023-03-27T20:38:04.958Z,46.37
2023-03-27T20:43:13.017Z,45.52
2023-03-27T20:48:18.381Z,44.06
2023-03-27T20:53:33.935Z,44.00
2023-03-27T20:58:39.623Z,43.16
2023-03-27T21:03:46.437Z,41.69
2023-03-27T21:08:50.984Z,41.71
2023-03-27T21:13:54.448Z,31.30
2023-03-27T21:18:58.305Z,25.78
2023-03-27T21:24:09.915Z,25.80
2023-03-27T21:29:15.613Z,26.59
2023-03-27T21:34:19.512Z,26.98
2023-03-27T21:39:23.506Z,26.59
2023-03-27T21:44:27.285Z,26.09
2023-03-27T21:49:30.767Z,25.67
2023-03-27T21:54:34.276Z,26.43
2023-03-27T21:59:38.397Z,27.56
2023-03-27T22:04:41.596Z,29.46
2023-03-27T22:09:46.153Z,30.41
2023-03-27T22:14:49.497Z,31.25
2023-03-27T22:19:54.850Z,33.20
2023-03-27T22:24:58.765Z,34.27
2023-03-27T22:30:02.901Z,34.17
2023-03-27T22:35:07.310Z,31.68
2023-03-27T22:40:11.281Z,31.00
2023-03-27T22:45:14.972Z,30.72
2023-03-27T22:50:18.937Z,29.98
2023-03-27T22:55:22.464Z,30.82
2023-03-27T23:00:26.696Z,31.29
2023-03-27T23:05:30.576Z,31.32
2023-03-27T23:10:34.108Z,30.20
2023-03-27T23:15:38.586Z,33.03
2023-03-27T23:20:42.087Z,32.92
2023-03-27T23:25:46.674Z,32.47
2023-03-27T23:31:01.466Z,32.71
2023-03-27T23:36:08.028Z,35.96
2023-03-27T23:41:13.950Z,36.82
2023-03-27T23:46:18.577Z,41.04
2023-03-27T23:51:22.582Z,42.71
2023-03-27T23:56:26.446Z,44.15
